Time;durP1;ratioP1;P1;durP2;ratioP2;P2;SDS_P1;SDS_P2;PMS_P1;PMS_P2;Temp;Humidity;BMP_temperature;BMP_pressure;BME280_temperature;BME280_humidity;BME280_pressure;Samples;Min_cycle;Max_cycle;Signal;HPM_P1;HPM_P2
2023/09/23 00:00:59;;;;;;;4.13;1.50;;;;;;;;;;5078623;28;20630;-65
2023/09/23 00:03:27;;;;;;;2.13;1.57;;;;;;;;;;5079297;28;20255;-65
2023/09/23 00:05:56;;;;;;;2.13;1.70;;;;;;;;;;5079336;28;20202;-65
2023/09/23 00:08:23;;;;;;;2.60;1.60;;;;;;;;;;5078645;28;20608;-65
2023/09/23 00:10:51;;;;;;;2.70;1.50;;;;;;;;;;5079082;28;20222;-66
2023/09/23 00:13:22;;;;;;;3.33;1.40;;;;;;;;;;5078527;28;20206;-65
2023/09/23 00:15:52;;;;;;;2.23;1.60;;;;;;;;;;5079049;28;20208;-65
2023/09/23 00:18:20;;;;;;;3.37;1.40;;;;;;;;;;5078881;28;20232;-66
2023/09/23 00:20:48;;;;;;;1.53;1.33;;;;;;;;;;5078871;28;20222;-66
2023/09/23 00:23:16;;;;;;;1.93;1.20;;;;;;;;;;5078486;28;20214;-65
2023/09/23 00:25:47;;;;;;;2.97;1.53;;;;;;;;;;5078861;28;20237;-66
2023/09/23 00:28:15;;;;;;;1.30;1.20;;;;;;;;;;5078547;28;20206;-66
2023/09/23 00:30:46;;;;;;;1.40;1.30;;;;;;;;;;5078449;28;20571;-65
2023/09/23 00:33:16;;;;;;;2.63;1.30;;;;;;;;;;5078530;28;20716;-66
2023/09/23 00:35:47;;;;;;;2.33;1.23;;;;;;;;;;5078786;28;20206;-65
2023/09/23 00:38:17;;;;;;;3.13;1.17;;;;;;;;;;5078236;28;20232;-65
2023/09/23 00:40:45;;;;;;;2.87;1.80;;;;;;;;;;5078163;28;20697;-65
2023/09/23 00:43:16;;;;;;;1.53;1.40;;;;;;;;;;5078036;28;20212;-66
2023/09/23 00:45:48;;;;;;;1.60;1.50;;;;;;;;;;5078477;28;20233;-65
2023/09/23 00:48:20;;;;;;;2.03;1.40;;;;;;;;;;5078266;28;20210;-66
2023/09/23 00:50:50;;;;;;;4.30;1.60;;;;;;;;;;5078334;28;20230;-65
2023/09/23 00:53:18;;;;;;;1.23;1.07;;;;;;;;;;5077968;28;20238;-65
2023/09/23 00:55:52;;;;;;;2.17;1.00;;;;;;;;;;5078035;28;20231;-65
2023/09/23 00:58:21;;;;;;;1.30;0.93;;;;;;;;;;5077972;28;20259;-66
2023/09/23 01:00:51;;;;;;;3.10;1.00;;;;;;;;;;5077927;28;20264;-66
2023/09/23 01:03:20;;;;;;;1.43;0.83;;;;;;;;;;5078327;28;20632;-65
2023/09/23 01:05:49;;;;;;;3.80;0.97;;;;;;;;;;5077882;28;20214;-66
2023/09/23 01:08:20;;;;;;;1.73;1.00;;;;;;;;;;5077870;28;20208;-65
2023/09/23 01:10:49;;;;;;;2.73;0.93;;;;;;;;;;5077932;28;20593;-65
2023/09/23 01:13:20;;;;;;;3.87;0.97;;;;;;;;;;5077863;28;20232;-65
2023/09/23 01:15:48;;;;;;;1.47;0.93;;;;;;;;;;5078078;28;20209;-65
2023/09/23 01:18:18;;;;;;;1.47;0.87;;;;;;;;;;5077734;28;20709;-66
2023/09/23 01:20:49;;;;;;;1.27;1.17;;;;;;;;;;5077819;28;20222;-66
2023/09/23 01:23:18;;;;;;;1.47;0.87;;;;;;;;;;5078061;28;20202;-66
2023/09/23 01:25:46;;;;;;;2.57;1.63;;;;;;;;;;5077779;28;20206;-66
2023/09/23 01:28:14;;;;;;;1.13;1.03;;;;;;;;;;5077451;28;20625;-66
2023/09/23 01:30:43;;;;;;;1.20;1.00;;;;;;;;;;5077905;28;20233;-65
2023/09/23 01:33:12;;;;;;;1.87;0.97;;;;;;;;;;5077700;28;20659;-65
2023/09/23 01:35:40;;;;;;;1.90;0.90;;;;;;;;;;5077599;28;20206;-66
2023/09/23 01:38:09;;;;;;;2.40;0.93;;;;;;;;;;5077407;28;20210;-66
2023/09/23 01:40:40;;;;;;;1.37;0.90;;;;;;;;;;5077738;28;20227;-66
2023/09/23 01:43:09;;;;;;;1.70;0.90;;;;;;;;;;5077286;28;20271;-65
2023/09/23 01:45:38;;;;;;;1.03;0.83;;;;;;;;;;5077558;28;20573;-65
2023/09/23 01:48:07;;;;;;;0.60;0.60;;;;;;;;;;5077576;28;20202;-65
2023/09/23 01:50:36;;;;;;;1.23;0.67;;;;;;;;;;5077505;28;20608;-66
2023/09/23 01:53:04;;;;;;;1.97;0.77;;;;;;;;;;5077176;28;20237;-65
2023/09/23 01:55:33;;;;;;;0.70;0.70;;;;;;;;;;5077780;28;20213;-65
2023/09/23 01:58:02;;;;;;;1.57;0.73;;;;;;;;;;5074900;28;20232;-66
2023/09/23 02:00:32;;;;;;;0.67;0.67;;;;;;;;;;5072317;28;20230;-66
2023/09/23 02:03:00;;;;;;;2.60;0.90;;;;;;;;;;5077315;28;20302;-65
2023/09/23 02:05:28;;;;;;;0.67;0.67;;;;;;;;;;5077608;28;20202;-65
2023/09/23 02:07:56;;;;;;;1.13;0.60;;;;;;;;;;5077118;28;20202;-66
2023/09/23 02:10:26;;;;;;;0.70;0.70;;;;;;;;;;5077474;28;20276;-65
2023/09/23 02:12:55;;;;;;;0.63;0.60;;;;;;;;;;5080425;28;20214;-65
2023/09/23 02:15:24;;;;;;;0.57;0.57;;;;;;;;;;5081154;28;20202;-66
2023/09/23 02:17:53;;;;;;;0.70;0.60;;;;;;;;;;5081217;28;20689;-65
2023/09/23 02:20:22;;;;;;;2.87;0.80;;;;;;;;;;5081030;28;20226;-65
2023/09/23 02:22:52;;;;;;;1.03;0.70;;;;;;;;;;5081189;28;20312;-66
2023/09/23 02:25:25;;;;;;;1.30;0.70;;;;;;;;;;5081019;28;20725;-66
2023/09/23 02:27:53;;;;;;;1.03;0.60;;;;;;;;;;5080974;28;20260;-66
2023/09/23 02:30:21;;;;;;;2.77;0.70;;;;;;;;;;5080926;28;20241;-65
2023/09/23 02:32:51;;;;;;;0.63;0.63;;;;;;;;;;5081131;28;20288;-66
2023/09/23 02:35:20;;;;;;;3.13;0.70;;;;;;;;;;5080678;28;20206;-66
2023/09/23 02:37:49;;;;;;;0.90;0.90;;;;;;;;;;5081067;28;20268;-65
2023/09/23 02:40:17;;;;;;;0.77;0.73;;;;;;;;;;5080617;28;20226;-65
2023/09/23 02:42:47;;;;;;;0.97;0.67;;;;;;;;;;5080620;28;20288;-65
2023/09/23 02:45:16;;;;;;;1.33;0.70;;;;;;;;;;5080572;28;20753;-65
2023/09/23 02:47:45;;;;;;;2.30;0.70;;;;;;;;;;5080519;28;20568;-65
2023/09/23 02:50:17;;;;;;;1.17;0.70;;;;;;;;;;5080329;28;20265;-65
2023/09/23 02:52:48;;;;;;;0.73;0.70;;;;;;;;;;5080390;28;20238;-67
2023/09/23 02:55:19;;;;;;;1.30;0.70;;;;;;;;;;5080284;28;20208;-66
2023/09/23 02:57:49;;;;;;;0.70;0.70;;;;;;;;;;5080479;28;20201;-65
2023/09/23 03:00:19;;;;;;;0.77;0.77;;;;;;;;;;5080024;28;20578;-66
2023/09/23 03:02:52;;;;;;;0.83;0.83;;;;;;;;;;5080466;28;20292;-66
2023/09/23 03:05:26;;;;;;;4.17;0.70;;;;;;;;;;5080233;28;20214;-65
2023/09/23 03:07:57;;;;;;;0.87;0.77;;;;;;;;;;5080358;28;20206;-66
2023/09/23 03:10:34;;;;;;;0.67;0.67;;;;;;;;;;5080389;28;20222;-66
2023/09/23 03:13:07;;;;;;;0.90;0.60;;;;;;;;;;5080046;28;20228;-65
2023/09/23 03:15:37;;;;;;;2.27;0.70;;;;;;;;;;5080089;28;20293;-65
2023/09/23 03:18:05;;;;;;;1.17;0.70;;;;;;;;;;5080263;28;20209;-65
2023/09/23 03:20:36;;;;;;;1.23;0.77;;;;;;;;;;5079745;28;20280;-65
2023/09/23 03:23:09;;;;;;;0.77;0.70;;;;;;;;;;5078600;28;20616;-66
2023/09/23 03:25:44;;;;;;;3.67;0.90;;;;;;;;;;5080095;28;20210;-66
2023/09/23 03:28:15;;;;;;;0.80;0.80;;;;;;;;;;5079438;28;20207;-66
2023/09/23 03:30:44;;;;;;;0.60;0.60;;;;;;;;;;5079849;28;20223;-65
2023/09/23 03:33:12;;;;;;;0.87;0.80;;;;;;;;;;5080076;28;20206;-65
2023/09/23 03:35:44;;;;;;;2.03;0.73;;;;;;;;;;5079798;28;20221;-66
2023/09/23 03:38:13;;;;;;;0.70;0.70;;;;;;;;;;5079410;28;20588;-66
2023/09/23 03:40:41;;;;;;;1.80;1.07;;;;;;;;;;5079602;28;20233;-66
2023/09/23 03:43:09;;;;;;;0.70;0.60;;;;;;;;;;5079156;28;20216;-66
2023/09/23 03:45:38;;;;;;;0.60;0.60;;;;;;;;;;5079781;28;20207;-66
2023/09/23 03:48:07;;;;;;;1.20;0.87;;;;;;;;;;5079468;28;20576;-67
2023/09/23 03:50:35;;;;;;;3.00;0.80;;;;;;;;;;5078970;28;20583;-66
2023/09/23 03:53:05;;;;;;;0.60;0.60;;;;;;;;;;5079019;28;20260;-66
2023/09/23 03:55:33;;;;;;;0.70;0.70;;;;;;;;;;5079525;28;20297;-66
2023/09/23 03:58:03;;;;;;;2.33;0.80;;;;;;;;;;5078988;28;20209;-66
2023/09/23 04:00:34;;;;;;;0.90;0.80;;;;;;;;;;5068437;28;20591;-66
2023/09/23 04:03:02;;;;;;;1.63;0.70;;;;;;;;;;5079232;28;20637;-66
2023/09/23 04:05:31;;;;;;;1.23;0.80;;;;;;;;;;5078911;28;20227;-66
2023/09/23 04:07:59;;;;;;;1.27;0.73;;;;;;;;;;5079214;28;20308;-66
2023/09/23 04:10:28;;;;;;;1.73;0.73;;;;;;;;;;5078842;28;20227;-67
2023/09/23 04:12:56;;;;;;;1.33;0.80;;;;;;;;;;5078926;28;20206;-67
2023/09/23 04:15:25;;;;;;;2.00;0.80;;;;;;;;;;5078800;28;20539;-66
2023/09/23 04:17:53;;;;;;;1.33;0.73;;;;;;;;;;5079115;28;20203;-66
2023/09/23 04:20:21;;;;;;;0.80;0.80;;;;;;;;;;5078829;28;20285;-67
2023/09/23 04:22:50;;;;;;;2.93;0.90;;;;;;;;;;5079057;28;20206;-67
2023/09/23 04:25:21;;;;;;;1.27;0.83;;;;;;;;;;5078811;28;20670;-67
2023/09/23 04:27:52;;;;;;;0.80;0.80;;;;;;;;;;5078690;28;20203;-67
2023/09/23 04:30:20;;;;;;;2.60;0.80;;;;;;;;;;5078012;28;20247;-67
2023/09/23 04:32:48;;;;;;;2.10;0.90;;;;;;;;;;5075801;28;20277;-66
2023/09/23 04:35:16;;;;;;;0.80;0.80;;;;;;;;;;5077914;28;20207;-66
2023/09/23 04:37:44;;;;;;;1.03;0.80;;;;;;;;;;5077958;28;20290;-66
2023/09/23 04:40:14;;;;;;;0.80;0.80;;;;;;;;;;5078002;28;20222;-66
2023/09/23 04:42:43;;;;;;;5.30;0.87;;;;;;;;;;5077701;28;20208;-66
2023/09/23 04:45:12;;;;;;;2.20;0.70;;;;;;;;;;5076322;28;20209;-66
2023/09/23 04:47:41;;;;;;;2.67;0.67;;;;;;;;;;5078319;28;20202;-66
2023/09/23 04:50:11;;;;;;;0.80;0.70;;;;;;;;;;5079291;28;20222;-66
2023/09/23 04:52:42;;;;;;;0.93;0.63;;;;;;;;;;5078254;28;20229;-66
2023/09/23 04:55:11;;;;;;;0.97;0.60;;;;;;;;;;5077695;28;20614;-66
2023/09/23 04:57:39;;;;;;;0.63;0.57;;;;;;;;;;5077899;28;20292;-66
2023/09/23 05:00:10;;;;;;;2.90;0.87;;;;;;;;;;5078044;28;20276;-66
2023/09/23 05:02:41;;;;;;;1.33;0.80;;;;;;;;;;5078345;28;20217;-66
2023/09/23 05:05:11;;;;;;;0.70;0.63;;;;;;;;;;5078380;28;20205;-66
2023/09/23 05:07:40;;;;;;;2.50;1.10;;;;;;;;;;5077877;28;20700;-66
2023/09/23 05:10:08;;;;;;;0.90;0.90;;;;;;;;;;5077801;28;20225;-66
2023/09/23 05:12:36;;;;;;;1.07;0.80;;;;;;;;;;5066951;28;20256;-66
2023/09/23 05:15:05;;;;;;;2.17;1.20;;;;;;;;;;5078070;28;20214;-66
2023/09/23 05:17:33;;;;;;;1.27;0.80;;;;;;;;;;5077743;28;20206;-65
2023/09/23 05:20:09;;;;;;;0.70;0.70;;;;;;;;;;5077683;28;20296;-66
2023/09/23 05:22:38;;;;;;;0.57;0.57;;;;;;;;;;5077998;28;20265;-65
2023/09/23 05:25:07;;;;;;;1.40;0.90;;;;;;;;;;5077489;28;20217;-64
2023/09/23 05:27:35;;;;;;;0.57;0.53;;;;;;;;;;5077579;28;20217;-64
2023/09/23 05:30:07;;;;;;;0.70;0.70;;;;;;;;;;5077399;28;20241;-64
2023/09/23 05:32:35;;;;;;;0.83;0.50;;;;;;;;;;5064710;28;20208;-64
2023/09/23 05:35:09;;;;;;;1.93;1.10;;;;;;;;;;5077854;28;20289;-64
2023/09/23 05:37:37;;;;;;;0.93;0.87;;;;;;;;;;5077975;28;20238;-65
2023/09/23 05:40:09;;;;;;;1.43;1.20;;;;;;;;;;5077710;28;20218;-64
2023/09/23 05:42:38;;;;;;;2.07;1.73;;;;;;;;;;5077373;28;20223;-64
2023/09/23 05:45:08;;;;;;;1.80;1.70;;;;;;;;;;5077799;28;20259;-64
2023/09/23 05:47:36;;;;;;;2.10;1.90;;;;;;;;;;5080507;28;20216;-64
2023/09/23 05:50:07;;;;;;;3.13;2.40;;;;;;;;;;5081837;28;20260;-64
2023/09/23 05:52:36;;;;;;;3.20;2.43;;;;;;;;;;5081456;28;20237;-64
2023/09/23 05:55:05;;;;;;;2.67;2.43;;;;;;;;;;5081633;28;20216;-64
2023/09/23 05:57:34;;;;;;;5.10;2.77;;;;;;;;;;5081215;28;20209;-64
2023/09/23 06:00:05;;;;;;;4.13;3.30;;;;;;;;;;5081364;28;20620;-65
2023/09/23 06:02:33;;;;;;;6.07;3.30;;;;;;;;;;5081471;28;20764;-64
2023/09/23 06:05:02;;;;;;;3.43;3.00;;;;;;;;;;5081743;28;20206;-64
2023/09/23 06:07:32;;;;;;;3.40;2.90;;;;;;;;;;5081196;28;20202;-64
2023/09/23 06:10:00;;;;;;;4.67;3.13;;;;;;;;;;5081334;28;20233;-64
2023/09/23 06:12:30;;;;;;;3.97;3.30;;;;;;;;;;5081177;28;20207;-64
2023/09/23 06:14:58;;;;;;;4.97;3.90;;;;;;;;;;5081106;28;20736;-64
2023/09/23 06:17:27;;;;;;;4.47;3.60;;;;;;;;;;5081030;28;20209;-63
2023/09/23 06:19:56;;;;;;;5.93;3.80;;;;;;;;;;5081228;28;20217;-64
2023/09/23 06:22:26;;;;;;;3.80;3.40;;;;;;;;;;5080825;28;20233;-65
2023/09/23 06:24:56;;;;;;;6.10;3.63;;;;;;;;;;5080881;28;20210;-64
2023/09/23 06:27:23;;;;;;;3.33;3.00;;;;;;;;;;5067543;28;20210;-64
2023/09/23 06:29:53;;;;;;;4.87;2.93;;;;;;;;;;5080918;28;20240;-67
2023/09/23 06:32:21;;;;;;;5.47;2.83;;;;;;;;;;5080791;28;20597;-64
2023/09/23 06:34:49;;;;;;;3.80;2.63;;;;;;;;;;5081003;28;20297;-64
2023/09/23 06:37:17;;;;;;;4.67;2.90;;;;;;;;;;5080733;28;20233;-61
2023/09/23 06:39:45;;;;;;;3.23;2.60;;;;;;;;;;5080683;28;20220;-64
2023/09/23 06:42:15;;;;;;;4.17;2.80;;;;;;;;;;5080140;28;20218;-63
2023/09/23 06:44:43;;;;;;;4.60;3.30;;;;;;;;;;5080595;28;20738;-64
2023/09/23 06:47:11;;;;;;;3.87;2.57;;;;;;;;;;5080010;28;20213;-65
2023/09/23 06:49:39;;;;;;;2.70;2.50;;;;;;;;;;5080353;28;20206;-64
2023/09/23 06:52:07;;;;;;;4.20;2.80;;;;;;;;;;5080518;28;20234;-64
2023/09/23 06:54:35;;;;;;;3.87;2.63;;;;;;;;;;5080438;28;20206;-64
2023/09/23 06:57:03;;;;;;;3.03;2.30;;;;;;;;;;5079898;28;20305;-64
2023/09/23 06:59:32;;;;;;;4.50;2.47;;;;;;;;;;5080354;28;20204;-64
2023/09/23 07:02:00;;;;;;;2.40;2.20;;;;;;;;;;5080291;28;20631;-64
2023/09/23 07:04:29;;;;;;;2.53;2.27;;;;;;;;;;5080516;28;20210;-64
2023/09/23 07:06:57;;;;;;;3.63;2.10;;;;;;;;;;5079987;28;20210;-64
2023/09/23 07:09:25;;;;;;;5.60;3.50;;;;;;;;;;5080157;28;20202;-64
2023/09/23 07:11:53;;;;;;;3.23;2.00;;;;;;;;;;5079675;28;20577;-64
2023/09/23 07:14:21;;;;;;;3.10;2.33;;;;;;;;;;5068841;28;20213;-64
2023/09/23 07:16:51;;;;;;;4.83;2.47;;;;;;;;;;5080262;28;20292;-64
2023/09/23 07:19:19;;;;;;;3.10;2.40;;;;;;;;;;5079802;28;20293;-65
2023/09/23 07:21:47;;;;;;;2.63;1.97;;;;;;;;;;5080122;28;20230;-66
2023/09/23 07:24:15;;;;;;;2.63;1.83;;;;;;;;;;5079806;28;20202;-66
2023/09/23 07:26:43;;;;;;;1.57;1.30;;;;;;;;;;5079853;28;20206;-66
2023/09/23 07:29:11;;;;;;;1.57;1.40;;;;;;;;;;5079989;28;20207;-65
2023/09/23 07:31:39;;;;;;;1.90;1.60;;;;;;;;;;5079977;28;20218;-64
2023/09/23 07:34:09;;;;;;;1.73;1.20;;;;;;;;;;5079644;28;20214;-66
2023/09/23 07:36:37;;;;;;;1.47;1.37;;;;;;;;;;5079596;28;20210;-66
2023/09/23 07:39:05;;;;;;;1.57;1.30;;;;;;;;;;5079569;28;20210;-65
2023/09/23 07:41:34;;;;;;;1.83;1.20;;;;;;;;;;5079235;28;20228;-65
2023/09/23 07:44:02;;;;;;;2.60;1.23;;;;;;;;;;5079427;28;20731;-65
2023/09/23 07:46:30;;;;;;;1.63;1.10;;;;;;;;;;5079762;28;20212;-65
2023/09/23 07:48:58;;;;;;;1.20;1.10;;;;;;;;;;5079663;28;20210;-64
2023/09/23 07:51:27;;;;;;;1.70;1.20;;;;;;;;;;5079316;28;20245;-64
2023/09/23 07:53:55;;;;;;;1.83;1.43;;;;;;;;;;5079265;28;20618;-64
2023/09/23 07:56:23;;;;;;;1.87;1.30;;;;;;;;;;5079216;28;20202;-64
2023/09/23 07:58:51;;;;;;;2.47;1.10;;;;;;;;;;5079271;28;20216;-66
2023/09/23 08:01:19;;;;;;;1.73;1.10;;;;;;;;;;5078986;28;20233;-64
2023/09/23 08:03:47;;;;;;;1.07;1.00;;;;;;;;;;5079334;28;20233;-64
2023/09/23 08:06:15;;;;;;;1.00;1.00;;;;;;;;;;5079020;28;20225;-64
2023/09/23 08:08:45;;;;;;;3.13;1.07;;;;;;;;;;5078670;28;20210;-66
2023/09/23 08:11:13;;;;;;;5.53;1.00;;;;;;;;;;5078752;28;20233;-66
2023/09/23 08:13:41;;;;;;;5.97;1.30;;;;;;;;;;5078921;28;20203;-66
2023/09/23 08:16:09;;;;;;;1.97;1.30;;;;;;;;;;5079170;28;20216;-66
2023/09/23 08:18:37;;;;;;;1.37;1.10;;;;;;;;;;5078680;28;20217;-66
2023/09/23 08:21:06;;;;;;;2.20;0.90;;;;;;;;;;5078860;28;20229;-66
2023/09/23 08:23:34;;;;;;;4.63;0.97;;;;;;;;;;5078782;28;20254;-66
2023/09/23 08:26:04;;;;;;;1.10;1.00;;;;;;;;;;5078719;28;20658;-66
2023/09/23 08:28:32;;;;;;;3.40;1.20;;;;;;;;;;5078279;28;20202;-66
2023/09/23 08:31:00;;;;;;;4.23;1.27;;;;;;;;;;5078728;28;20237;-66
2023/09/23 08:33:28;;;;;;;1.90;1.10;;;;;;;;;;5078742;28;20202;-66
2023/09/23 08:35:56;;;;;;;2.30;1.00;;;;;;;;;;5078670;28;20293;-66
2023/09/23 08:38:24;;;;;;;2.10;0.93;;;;;;;;;;5078572;28;20230;-66
2023/09/23 08:40:53;;;;;;;2.33;0.97;;;;;;;;;;5078315;28;20724;-66
2023/09/23 08:43:27;;;;;;;2.87;0.70;;;;;;;;;;5078090;28;20226;-66
2023/09/23 08:45:56;;;;;;;1.60;0.90;;;;;;;;;;5078347;28;20220;-66
2023/09/23 08:48:24;;;;;;;1.43;0.67;;;;;;;;;;5078468;28;20207;-66
2023/09/23 08:50:53;;;;;;;1.43;0.90;;;;;;;;;;5078440;28;20229;-66
2023/09/23 08:53:22;;;;;;;1.60;0.90;;;;;;;;;;5077979;28;20299;-66
2023/09/23 08:55:52;;;;;;;2.70;0.90;;;;;;;;;;5078362;28;20240;-65
2023/09/23 08:58:23;;;;;;;1.13;0.90;;;;;;;;;;5077739;28;20210;-65
2023/09/23 09:00:53;;;;;;;2.67;1.00;;;;;;;;;;5077687;28;20766;-66
2023/09/23 09:03:21;;;;;;;1.20;0.90;;;;;;;;;;5077955;28;20256;-66
2023/09/23 09:05:49;;;;;;;2.20;0.70;;;;;;;;;;5077989;28;20670;-66
2023/09/23 09:08:18;;;;;;;2.30;1.00;;;;;;;;;;5077855;28;20264;-66
2023/09/23 09:10:46;;;;;;;1.70;0.90;;;;;;;;;;5077940;28;20229;-66
2023/09/23 09:13:17;;;;;;;1.63;1.03;;;;;;;;;;5077447;28;20554;-66
2023/09/23 09:15:46;;;;;;;1.57;1.00;;;;;;;;;;5067610;28;20230;-66
2023/09/23 09:18:16;;;;;;;2.37;0.80;;;;;;;;;;5077733;28;20237;-66
2023/09/23 09:20:45;;;;;;;1.07;0.70;;;;;;;;;;5077534;28;20236;-66
2023/09/23 09:23:13;;;;;;;1.13;0.80;;;;;;;;;;5077718;28;20237;-65
2023/09/23 09:25:47;;;;;;;0.87;0.83;;;;;;;;;;5077896;28;20206;-66
2023/09/23 09:28:16;;;;;;;0.77;0.60;;;;;;;;;;5077400;28;20598;-66
2023/09/23 09:30:48;;;;;;;1.43;0.80;;;;;;;;;;5077536;28;20725;-65
2023/09/23 09:33:16;;;;;;;1.43;0.83;;;;;;;;;;5077895;28;20206;-66
2023/09/23 09:35:45;;;;;;;2.00;0.97;;;;;;;;;;5077531;28;20700;-65
2023/09/23 09:38:14;;;;;;;1.50;0.70;;;;;;;;;;5077561;28;20232;-64
2023/09/23 09:40:45;;;;;;;3.60;0.90;;;;;;;;;;5077747;28;20225;-64
2023/09/23 09:43:14;;;;;;;1.40;0.70;;;;;;;;;;5077513;28;20222;-64
2023/09/23 09:45:44;;;;;;;1.23;0.87;;;;;;;;;;5077790;28;20225;-64
2023/09/23 09:48:15;;;;;;;2.03;0.93;;;;;;;;;;5077276;28;20619;-64
2023/09/23 09:50:45;;;;;;;0.87;0.70;;;;;;;;;;5077750;28;20237;-64
2023/09/23 09:53:13;;;;;;;1.63;0.70;;;;;;;;;;5077118;28;20238;-64
2023/09/23 09:55:42;;;;;;;1.47;0.73;;;;;;;;;;5077738;28;20210;-63
2023/09/23 09:58:10;;;;;;;2.03;0.60;;;;;;;;;;5077265;28;20202;-64
2023/09/23 10:00:42;;;;;;;1.30;0.77;;;;;;;;;;5077274;28;20229;-65
2023/09/23 10:03:11;;;;;;;2.47;0.90;;;;;;;;;;5077323;28;20313;-64
2023/09/23 10:05:46;;;;;;;2.03;0.90;;;;;;;;;;5077402;28;20210;-65
2023/09/23 10:08:15;;;;;;;2.83;0.80;;;;;;;;;;5077084;28;20208;-66
2023/09/23 10:10:46;;;;;;;2.97;0.60;;;;;;;;;;5077057;28;20230;-66
2023/09/23 10:13:15;;;;;;;1.20;0.90;;;;;;;;;;5077179;28;20644;-65
2023/09/23 10:15:43;;;;;;;0.70;0.53;;;;;;;;;;5077101;28;20658;-65
2023/09/23 10:18:12;;;;;;;3.27;0.90;;;;;;;;;;5077049;28;20203;-65
2023/09/23 10:20:41;;;;;;;1.93;0.90;;;;;;;;;;5076985;28;20739;-65
2023/09/23 10:23:11;;;;;;;1.80;0.77;;;;;;;;;;5077116;28;20210;-64
2023/09/23 10:25:40;;;;;;;1.33;1.00;;;;;;;;;;5077460;28;20206;-64
2023/09/23 10:28:18;;;;;;;2.40;0.73;;;;;;;;;;5076846;28;20206;-64
2023/09/23 10:30:56;;;;;;;1.27;0.90;;;;;;;;;;5077258;28;20276;-64
2023/09/23 10:33:25;;;;;;;3.67;2.10;;;;;;;;;;5079544;28;20199;-64
2023/09/23 10:35:56;;;;;;;3.30;1.20;;;;;;;;;;5080846;28;20320;-64
2023/09/23 10:38:30;;;;;;;1.40;1.20;;;;;;;;;;5080894;28;20213;-64
2023/09/23 10:40:58;;;;;;;2.20;0.87;;;;;;;;;;5080855;28;20226;-64
2023/09/23 10:43:27;;;;;;;1.37;0.67;;;;;;;;;;5080634;28;20309;-65
2023/09/23 10:45:56;;;;;;;1.07;0.90;;;;;;;;;;5081349;28;20210;-64
2023/09/23 10:48:25;;;;;;;1.43;0.80;;;;;;;;;;5080838;28;20312;-64
2023/09/23 10:50:53;;;;;;;1.27;0.97;;;;;;;;;;5080394;28;20230;-64
2023/09/23 10:53:22;;;;;;;3.27;1.17;;;;;;;;;;5080100;28;20242;-65
2023/09/23 10:55:52;;;;;;;2.93;1.37;;;;;;;;;;5080423;28;20723;-64
2023/09/23 10:58:21;;;;;;;6.53;2.07;;;;;;;;;;5080375;28;20213;-64
2023/09/23 11:00:51;;;;;;;3.40;0.70;;;;;;;;;;5080336;28;20230;-64
2023/09/23 11:03:21;;;;;;;2.67;1.40;;;;;;;;;;5080515;28;20206;-64
2023/09/23 11:05:49;;;;;;;1.93;1.30;;;;;;;;;;5080332;28;20268;-64
2023/09/23 11:08:18;;;;;;;4.10;1.10;;;;;;;;;;5080046;28;20207;-65
2023/09/23 11:10:47;;;;;;;2.33;0.90;;;;;;;;;;5079283;28;20300;-65
2023/09/23 11:13:17;;;;;;;4.50;1.00;;;;;;;;;;5079263;28;20198;-64
2023/09/23 11:15:46;;;;;;;1.10;1.00;;;;;;;;;;5077448;28;20202;-64
2023/09/23 11:18:14;;;;;;;2.63;0.73;;;;;;;;;;5078618;28;20214;-63
2023/09/23 11:20:43;;;;;;;1.20;0.60;;;;;;;;;;5079288;28;20249;-64
2023/09/23 11:23:12;;;;;;;2.53;0.97;;;;;;;;;;5079427;28;20206;-64
2023/09/23 11:25:42;;;;;;;2.17;1.00;;;;;;;;;;5078922;28;20226;-65
2023/09/23 11:28:18;;;;;;;1.80;0.80;;;;;;;;;;5079106;28;20208;-65
2023/09/23 11:30:47;;;;;;;0.70;0.70;;;;;;;;;;5078823;28;20275;-65
2023/09/23 11:33:15;;;;;;;1.13;0.73;;;;;;;;;;5080087;28;20213;-66
2023/09/23 11:35:47;;;;;;;0.83;0.77;;;;;;;;;;5079640;28;20735;-66
2023/09/23 11:38:16;;;;;;;0.90;0.60;;;;;;;;;;5079763;28;20293;-64
2023/09/23 11:40:45;;;;;;;2.17;0.80;;;;;;;;;;5079610;28;20221;-64
2023/09/23 11:43:15;;;;;;;1.50;0.90;;;;;;;;;;5079298;28;20195;-64
2023/09/23 11:45:48;;;;;;;2.33;0.77;;;;;;;;;;5078500;28;20256;-64
2023/09/23 11:48:17;;;;;;;1.70;0.80;;;;;;;;;;5079550;28;20213;-64
2023/09/23 11:50:48;;;;;;;2.00;0.90;;;;;;;;;;5078893;28;20759;-65
2023/09/23 11:53:19;;;;;;;0.87;0.60;;;;;;;;;;5079065;28;20635;-65
2023/09/23 11:55:49;;;;;;;1.90;0.93;;;;;;;;;;5079439;28;20206;-65
2023/09/23 11:58:19;;;;;;;1.17;0.73;;;;;;;;;;5079181;28;20289;-64
2023/09/23 12:00:49;;;;;;;0.60;0.60;;;;;;;;;;5079045;28;20226;-64
2023/09/23 12:03:21;;;;;;;0.90;0.67;;;;;;;;;;5079322;28;20284;-65
2023/09/23 12:05:50;;;;;;;1.67;0.70;;;;;;;;;;5078932;28;20566;-64
2023/09/23 12:08:23;;;;;;;2.10;1.03;;;;;;;;;;5078834;28;20209;-65
2023/09/23 12:10:55;;;;;;;4.30;0.60;;;;;;;;;;5077505;28;20712;-65
2023/09/23 12:13:25;;;;;;;1.10;0.80;;;;;;;;;;5078914;28;20244;-66
2023/09/23 12:15:54;;;;;;;1.77;0.70;;;;;;;;;;5078763;28;20206;-64
2023/09/23 12:18:26;;;;;;;0.83;0.67;;;;;;;;;;5078887;28;20638;-64
2023/09/23 12:20:55;;;;;;;4.20;2.00;;;;;;;;;;5077243;28;20237;-64
2023/09/23 12:23:25;;;;;;;2.40;1.33;;;;;;;;;;5077608;28;20209;-63
2023/09/23 12:25:53;;;;;;;0.93;0.90;;;;;;;;;;5078466;28;20230;-65
2023/09/23 12:28:23;;;;;;;1.70;0.73;;;;;;;;;;5078613;28;20206;-65
2023/09/23 12:30:52;;;;;;;3.57;1.00;;;;;;;;;;5078518;28;20317;-63
2023/09/23 12:33:24;;;;;;;1.93;1.20;;;;;;;;;;5078709;28;20214;-63
2023/09/23 12:35:52;;;;;;;15.63;7.40;;;;;;;;;;5078754;28;20255;-64
2023/09/23 12:38:20;;;;;;;4.57;2.07;;;;;;;;;;5077164;28;20293;-63
2023/09/23 12:40:49;;;;;;;3.00;1.17;;;;;;;;;;5078421;28;20226;-64
2023/09/23 12:43:20;;;;;;;2.67;0.90;;;;;;;;;;5077763;28;20207;-66
2023/09/23 12:45:50;;;;;;;7.60;3.40;;;;;;;;;;5078533;28;20230;-65
2023/09/23 12:48:21;;;;;;;7.77;2.93;;;;;;;;;;5078445;28;20216;-65
2023/09/23 12:50:49;;;;;;;2.03;0.97;;;;;;;;;;5078009;28;20257;-64
2023/09/23 12:53:17;;;;;;;1.87;0.90;;;;;;;;;;5077887;28;20246;-66
2023/09/23 12:55:46;;;;;;;2.80;0.77;;;;;;;;;;5077738;28;20218;-66
2023/09/23 12:58:14;;;;;;;2.03;0.80;;;;;;;;;;5077436;28;20277;-66
2023/09/23 13:00:42;;;;;;;3.97;1.53;;;;;;;;;;5077761;28;20217;-65
2023/09/23 13:03:11;;;;;;;3.70;1.50;;;;;;;;;;5075092;28;20214;-66
2023/09/23 13:05:41;;;;;;;2.90;1.67;;;;;;;;;;5077125;28;20784;-66
2023/09/23 13:08:11;;;;;;;1.37;0.70;;;;;;;;;;5076098;28;20237;-65
2023/09/23 13:10:42;;;;;;;1.13;0.80;;;;;;;;;;5077390;28;20225;-64
2023/09/23 13:13:12;;;;;;;2.00;1.37;;;;;;;;;;5077432;28;20212;-66
2023/09/23 13:15:47;;;;;;;0.73;0.67;;;;;;;;;;5077708;28;20205;-66
2023/09/23 13:18:17;;;;;;;0.70;0.70;;;;;;;;;;5056598;28;20205;-66
2023/09/23 13:20:48;;;;;;;0.87;0.63;;;;;;;;;;5077393;28;20224;-65
2023/09/23 13:23:18;;;;;;;0.63;0.63;;;;;;;;;;5075005;28;20205;-65
2023/09/23 13:25:48;;;;;;;1.67;0.90;;;;;;;;;;5077349;28;20233;-66
2023/09/23 13:28:19;;;;;;;1.53;1.17;;;;;;;;;;5075057;28;20206;-65
2023/09/23 13:30:50;;;;;;;3.60;1.43;;;;;;;;;;5077461;28;20214;-66
2023/09/23 13:33:22;;;;;;;2.43;1.00;;;;;;;;;;5074978;28;20236;-66
2023/09/23 13:35:54;;;;;;;3.27;0.73;;;;;;;;;;5075646;28;20200;-65
2023/09/23 13:38:24;;;;;;;0.97;0.80;;;;;;;;;;5077490;28;20208;-65
2023/09/23 13:40:53;;;;;;;3.03;0.87;;;;;;;;;;5077340;28;20214;-64
2023/09/23 13:43:21;;;;;;;2.70;1.13;;;;;;;;;;5076711;28;20543;-64
2023/09/23 13:45:50;;;;;;;3.70;0.90;;;;;;;;;;5077381;28;20236;-65
2023/09/23 13:48:18;;;;;;;1.40;0.73;;;;;;;;;;5077144;28;20659;-65
2023/09/23 13:50:52;;;;;;;4.37;0.70;;;;;;;;;;5076947;28;20357;-65
2023/09/23 13:53:22;;;;;;;2.40;0.60;;;;;;;;;;5077231;28;20271;-65
2023/09/23 13:55:50;;;;;;;2.00;0.60;;;;;;;;;;5077967;28;20228;-65
2023/09/23 13:58:18;;;;;;;2.53;0.63;;;;;;;;;;5077273;28;20259;-65
2023/09/23 14:00:47;;;;;;;3.90;0.80;;;;;;;;;;5076954;28;20225;-65
2023/09/23 14:03:17;;;;;;;0.80;0.60;;;;;;;;;;5076449;28;20241;-65
2023/09/23 14:05:48;;;;;;;4.17;1.10;;;;;;;;;;5076270;28;20236;-64
2023/09/23 14:08:17;;;;;;;1.80;0.73;;;;;;;;;;5079709;28;20210;-65
2023/09/23 14:10:47;;;;;;;1.47;0.70;;;;;;;;;;5080891;28;20304;-64
2023/09/23 14:13:15;;;;;;;1.73;0.90;;;;;;;;;;5081386;28;20209;-65
2023/09/23 14:15:44;;;;;;;1.83;0.83;;;;;;;;;;5080892;28;20661;-64
2023/09/23 14:18:13;;;;;;;4.87;1.17;;;;;;;;;;5081479;28;20226;-65
2023/09/23 14:20:43;;;;;;;1.63;1.40;;;;;;;;;;5081378;28;20226;-64
2023/09/23 14:23:12;;;;;;;1.63;1.53;;;;;;;;;;5081205;28;20233;-64
2023/09/23 14:25:41;;;;;;;2.40;2.20;;;;;;;;;;5080518;28;20698;-64
2023/09/23 14:28:15;;;;;;;2.00;1.90;;;;;;;;;;5062271;28;20252;-64
2023/09/23 14:30:44;;;;;;;3.20;2.30;;;;;;;;;;5080823;28;20239;-64
2023/09/23 14:33:12;;;;;;;3.53;2.30;;;;;;;;;;5080625;28;20207;-64
2023/09/23 14:35:43;;;;;;;3.17;2.13;;;;;;;;;;5081039;28;20210;-64
2023/09/23 14:38:14;;;;;;;2.30;2.10;;;;;;;;;;5067666;28;20577;-65
2023/09/23 14:40:43;;;;;;;3.83;1.50;;;;;;;;;;5080546;28;20234;-64
2023/09/23 14:43:11;;;;;;;2.23;1.50;;;;;;;;;;5076582;28;20198;-65
2023/09/23 14:45:41;;;;;;;2.93;1.03;;;;;;;;;;5080518;28;20226;-64
2023/09/23 14:48:09;;;;;;;3.57;1.67;;;;;;;;;;5080613;28;20202;-64
2023/09/23 14:50:38;;;;;;;2.67;2.17;;;;;;;;;;5080404;28;20281;-64
2023/09/23 14:53:09;;;;;;;4.70;3.97;;;;;;;;;;5069505;28;20234;-63
2023/09/23 14:55:37;;;;;;;2.00;0.90;;;;;;;;;;5070067;28;20314;-63